Norwich, Kansas
Current Conditions -  °F | °C
As of 9:53 AM on Saturday 22 Nov 2014 (Local Time) from KICT Reporting Station
Drizzle Drizzle  
Wind Chill:   Ceiling: 200
Heat Index:   Visibility: 0.12mi
Dew Point:   Wind: 6mph
Humidity: 97%   Direction: 180°S
Pressure: 29.94"   Gusts: NA
Location:  37.46°N, 97.85°W
Report Text: KICT 221553Z 18005KT 1/8SM R01L/1000V1200FT -DZ FG VV002 08/08 A2994 RMK AO2 SLP140 P0000 T00830078
Loading
Personal Weather Stations






























Interactive Weather Map New forecast layout! Learn more

10-Day Weather Forecast

Advertisements
Track Severe Weather on mobile